Time;durP1;ratioP1;P1;durP2;ratioP2;P2;SDS_P1;SDS_P2;PMS_P1;PMS_P2;Temp;Humidity;BMP_temperature;BMP_pressure;BME280_temperature;BME280_humidity;BME280_pressure;Samples;Min_cycle;Max_cycle;Signal;HPM_P1;HPM_P2
2024/03/22 00:00:31;;;;;;;24.52;11.23;;;12.80;99.90;;;;;;5023210;28;20076;-78
2024/03/22 00:02:56;;;;;;;19.55;11.35;;;12.80;99.90;;;;;;5024549;28;20029;-79
2024/03/22 00:05:22;;;;;;;17.80;10.15;;;12.80;99.90;;;;;;5009969;28;20022;-78
2024/03/22 00:07:48;;;;;;;21.73;10.98;;;12.80;99.90;;;;;;5025945;28;20021;-78
2024/03/22 00:10:14;;;;;;;20.20;10.45;;;12.80;99.90;;;;;;5004860;28;20033;-78
2024/03/22 00:12:40;;;;;;;26.00;10.15;;;12.80;99.90;;;;;;5027574;28;20100;-78
2024/03/22 00:15:06;;;;;;;23.35;11.13;;;12.80;99.90;;;;;;5027256;28;20035;-78
2024/03/22 00:17:31;;;;;;;27.67;11.63;;;12.80;99.90;;;;;;5022923;28;20479;-78
2024/03/22 00:19:57;;;;;;;21.35;10.98;;;12.80;99.90;;;;;;5029378;28;20109;-78
2024/03/22 00:22:22;;;;;;;23.65;12.07;;;12.80;99.90;;;;;;5028969;28;20037;-78
2024/03/22 00:24:48;;;;;;;21.85;11.20;;;12.80;99.90;;;;;;5026350;28;20035;-78
2024/03/22 00:27:13;;;;;;;20.27;10.82;;;12.80;99.90;;;;;;5009988;28;20022;-78
2024/03/22 00:29:39;;;;;;;20.73;11.35;;;12.70;99.90;;;;;;5032135;28;20026;-79
2024/03/22 00:32:07;;;;;;;21.88;11.73;;;12.70;99.90;;;;;;5028288;28;20014;-79
2024/03/22 00:34:33;;;;;;;23.55;11.30;;;12.70;99.90;;;;;;5029224;28;20049;-77
2024/03/22 00:36:58;;;;;;;23.08;12.55;;;12.70;99.90;;;;;;5005684;28;20064;-78
2024/03/22 00:39:24;;;;;;;28.65;13.48;;;12.70;99.90;;;;;;5026474;28;20027;-77
2024/03/22 00:41:49;;;;;;;21.27;11.70;;;12.70;99.90;;;;;;5028925;28;20025;-79
2024/03/22 00:44:15;;;;;;;22.27;12.57;;;12.70;99.90;;;;;;5028040;28;20029;-78
2024/03/22 00:46:40;;;;;;;26.63;12.02;;;12.70;99.90;;;;;;5027595;28;20147;-78
2024/03/22 00:49:06;;;;;;;25.58;12.60;;;12.70;99.90;;;;;;5025964;28;20096;-77
2024/03/22 00:51:31;;;;;;;26.05;12.60;;;12.70;99.90;;;;;;5012697;28;20115;-78
2024/03/22 00:53:57;;;;;;;26.65;13.98;;;12.70;99.90;;;;;;5032060;28;20036;-78
2024/03/22 00:56:22;;;;;;;23.52;12.82;;;12.70;99.90;;;;;;5007505;28;20024;-78
2024/03/22 00:58:48;;;;;;;26.73;13.77;;;12.70;99.90;;;;;;5014091;28;20033;-79
2024/03/22 01:01:13;;;;;;;29.02;13.38;;;12.70;99.90;;;;;;5009318;28;20483;-79
2024/03/22 01:03:39;;;;;;;31.10;14.77;;;12.70;99.90;;;;;;5026608;28;20055;-79
2024/03/22 01:06:04;;;;;;;29.38;14.48;;;12.70;99.90;;;;;;5027748;28;20017;-79
2024/03/22 01:08:30;;;;;;;27.13;12.90;;;12.70;99.90;;;;;;5031579;28;20021;-78
2024/03/22 01:10:56;;;;;;;26.00;13.63;;;12.70;99.90;;;;;;5028944;28;20035;-78
2024/03/22 01:13:21;;;;;;;30.55;14.20;;;12.70;99.90;;;;;;5027656;28;20482;-78
2024/03/22 01:15:47;;;;;;;27.73;13.57;;;12.70;99.90;;;;;;5030749;28;20040;-78
2024/03/22 01:18:12;;;;;;;26.98;14.93;;;12.70;99.90;;;;;;5008959;28;20060;-78
2024/03/22 01:20:38;;;;;;;30.63;14.98;;;12.70;99.90;;;;;;5009525;28;20032;-78
2024/03/22 01:23:04;;;;;;;33.00;15.32;;;12.70;99.90;;;;;;5028955;28;20055;-78
2024/03/22 01:25:30;;;;;;;33.08;15.00;;;12.60;99.90;;;;;;5007754;28;20045;-79
2024/03/22 01:27:56;;;;;;;29.70;15.10;;;12.70;99.90;;;;;;5011475;28;20534;-79
2024/03/22 01:30:22;;;;;;;26.35;13.98;;;12.70;99.90;;;;;;5028922;28;20069;-78
2024/03/22 01:32:47;;;;;;;29.63;13.40;;;12.70;99.90;;;;;;5009299;28;20017;-79
2024/03/22 01:35:13;;;;;;;32.97;14.55;;;12.70;99.90;;;;;;5010550;28;20484;-78
2024/03/22 01:37:38;;;;;;;24.83;13.77;;;12.70;99.90;;;;;;5029125;28;20521;-78
2024/03/22 01:40:05;;;;;;;27.40;14.77;;;12.70;99.90;;;;;;5013071;28;20021;-79
2024/03/22 01:42:30;;;;;;;29.70;14.65;;;12.70;99.90;;;;;;5013056;28;20071;-78
2024/03/22 01:44:56;;;;;;;31.85;15.98;;;12.70;99.90;;;;;;5011382;28;20021;-79
2024/03/22 01:47:22;;;;;;;32.78;15.02;;;12.70;99.90;;;;;;5012400;28;20022;-78
2024/03/22 01:49:50;;;;;;;28.40;14.80;;;12.70;99.90;;;;;;5028680;28;20489;-78
2024/03/22 01:52:16;;;;;;;29.58;14.77;;;12.60;99.90;;;;;;5025713;28;20096;-78
2024/03/22 01:54:42;;;;;;;26.73;15.57;;;12.60;99.90;;;;;;5030559;28;20454;-78
2024/03/22 01:57:08;;;;;;;30.63;14.50;;;12.60;99.90;;;;;;5029762;28;20499;-78
2024/03/22 01:59:34;;;;;;;29.92;14.60;;;12.70;99.90;;;;;;5026067;28;20053;-78
2024/03/22 02:01:59;;;;;;;32.85;14.65;;;12.60;99.90;;;;;;5029741;28;20061;-78
2024/03/22 02:04:25;;;;;;;28.95;14.40;;;12.60;99.90;;;;;;5028107;28;20105;-78
2024/03/22 02:06:50;;;;;;;26.80;14.05;;;12.60;99.90;;;;;;5026818;28;20097;-78
2024/03/22 02:09:16;;;;;;;23.35;13.80;;;12.60;99.90;;;;;;5028327;28;20513;-78
2024/03/22 02:11:42;;;;;;;24.50;13.10;;;12.60;99.90;;;;;;5012254;28;20108;-78
2024/03/22 02:14:08;;;;;;;25.02;12.75;;;12.60;99.90;;;;;;5012080;28;20017;-78
2024/03/22 02:16:33;;;;;;;24.17;12.77;;;12.60;99.90;;;;;;5028003;28;20096;-78
2024/03/22 02:18:59;;;;;;;27.52;13.85;;;12.60;99.90;;;;;;5012673;28;20395;-78
2024/03/22 02:21:24;;;;;;;28.13;13.10;;;12.60;99.90;;;;;;5027704;28;20029;-78
2024/03/22 02:23:50;;;;;;;24.83;13.32;;;12.60;99.90;;;;;;5012428;28;20025;-79
2024/03/22 02:26:16;;;;;;;30.73;12.95;;;12.60;99.90;;;;;;5029694;28;20026;-79
2024/03/22 02:28:41;;;;;;;31.45;12.43;;;12.60;99.90;;;;;;5028086;28;20072;-78
2024/03/22 02:31:07;;;;;;;25.98;13.23;;;12.60;99.90;;;;;;5012693;28;20021;-79
2024/03/22 02:33:32;;;;;;;23.92;12.23;;;12.60;99.90;;;;;;5029402;28;20028;-78
2024/03/22 02:35:58;;;;;;;22.00;12.20;;;12.60;99.90;;;;;;5030447;28;20040;-79
2024/03/22 02:38:24;;;;;;;24.15;12.30;;;12.50;99.90;;;;;;5008122;28;20028;-77
2024/03/22 02:40:50;;;;;;;23.35;11.50;;;12.60;99.90;;;;;;5012728;28;20029;-78
2024/03/22 02:43:18;;;;;;;22.88;11.82;;;12.60;99.90;;;;;;5026537;28;20040;-78
2024/03/22 02:45:44;;;;;;;21.50;11.68;;;12.60;99.90;;;;;;5008777;28;20022;-79
2024/03/22 02:48:10;;;;;;;22.55;11.23;;;12.50;99.90;;;;;;5028620;28;20556;-78
2024/03/22 02:50:39;;;;;;;26.33;12.25;;;12.50;99.90;;;;;;5012565;28;20032;-78
2024/03/22 02:53:05;;;;;;;21.80;11.77;;;12.50;99.90;;;;;;5025518;28;20063;-78
2024/03/22 02:55:36;;;;;;;21.67;10.90;;;12.50;99.90;;;;;;5027453;28;20093;-78
2024/03/22 02:58:02;;;;;;;21.63;10.65;;;12.50;99.90;;;;;;5006844;28;20017;-78
2024/03/22 03:00:28;;;;;;;23.88;10.65;;;12.50;99.90;;;;;;5025621;28;20029;-79
2024/03/22 03:02:53;;;;;;;19.13;11.32;;;12.50;99.90;;;;;;5027965;28;20080;-78
2024/03/22 03:05:19;;;;;;;29.20;12.18;;;12.50;99.90;;;;;;5026094;28;20041;-78
2024/03/22 03:07:44;;;;;;;19.27;10.38;;;12.50;99.90;;;;;;5009280;28;20080;-78
2024/03/22 03:10:10;;;;;;;28.55;11.20;;;12.50;99.90;;;;;;5012213;28;20033;-78
2024/03/22 03:12:35;;;;;;;21.98;10.90;;;12.50;99.90;;;;;;5008718;28;20020;-79
2024/03/22 03:15:02;;;;;;;22.65;10.63;;;12.50;99.90;;;;;;5029469;28;20025;-78
2024/03/22 03:17:28;;;;;;;21.95;10.57;;;12.50;99.90;;;;;;5025030;28;20475;-78
2024/03/22 03:19:53;;;;;;;25.08;11.13;;;12.50;99.90;;;;;;5012074;28;20032;-78
2024/03/22 03:22:19;;;;;;;25.58;11.15;;;12.50;99.90;;;;;;5029404;28;20053;-78
2024/03/22 03:24:45;;;;;;;23.17;11.32;;;12.50;99.90;;;;;;5026644;28;20092;-78
2024/03/22 03:27:10;;;;;;;22.58;11.40;;;12.50;99.90;;;;;;5011433;28;20021;-78
2024/03/22 03:29:37;;;;;;;22.30;11.60;;;12.50;99.90;;;;;;5029711;28;20485;-79
2024/03/22 03:32:02;;;;;;;23.23;11.05;;;12.50;99.90;;;;;;5011737;28;20522;-78
2024/03/22 03:34:28;;;;;;;20.33;10.60;;;12.50;99.90;;;;;;5026884;28;20026;-78
2024/03/22 03:36:53;;;;;;;24.63;9.93;;;12.50;99.90;;;;;;5029631;28;20053;-78
2024/03/22 03:39:19;;;;;;;24.95;12.88;;;12.50;99.90;;;;;;5026277;28;20029;-78
2024/03/22 03:41:45;;;;;;;18.98;10.77;;;12.50;99.90;;;;;;5009209;28;20025;-79
2024/03/22 03:44:10;;;;;;;20.88;11.80;;;12.50;99.90;;;;;;5029438;28;20030;-78
2024/03/22 03:46:36;;;;;;;25.42;11.85;;;12.50;99.90;;;;;;5027062;28;20025;-78
2024/03/22 03:49:01;;;;;;;19.27;11.23;;;12.50;99.90;;;;;;5011580;28;20017;-78
2024/03/22 03:51:27;;;;;;;20.42;10.40;;;12.50;99.90;;;;;;5023836;28;20017;-78
2024/03/22 03:53:52;;;;;;;21.75;11.45;;;12.50;99.90;;;;;;5029240;28;20027;-78
2024/03/22 03:56:18;;;;;;;22.50;12.00;;;12.50;99.90;;;;;;5025687;28;20017;-78
2024/03/22 03:58:46;;;;;;;23.15;11.63;;;12.50;99.90;;;;;;5029867;28;20042;-79
2024/03/22 04:01:11;;;;;;;20.83;10.70;;;12.40;99.90;;;;;;5030081;28;20049;-78
2024/03/22 04:03:37;;;;;;;21.60;11.73;;;12.40;99.90;;;;;;5014672;28;20035;-79
2024/03/22 04:06:02;;;;;;;22.92;11.40;;;12.40;99.90;;;;;;5032885;28;20020;-78
2024/03/22 04:08:30;;;;;;;22.90;11.48;;;12.40;99.90;;;;;;5031381;28;20117;-78
2024/03/22 04:10:56;;;;;;;25.27;11.43;;;12.40;99.90;;;;;;5013782;28;20022;-80
2024/03/22 04:13:23;;;;;;;22.70;11.13;;;12.40;99.90;;;;;;5030563;28;20022;-80
2024/03/22 04:15:49;;;;;;;24.45;10.52;;;12.40;99.90;;;;;;5033228;28;20025;-78
2024/03/22 04:18:14;;;;;;;22.83;11.57;;;12.40;99.90;;;;;;5032372;28;20040;-78
2024/03/22 04:20:40;;;;;;;20.80;10.98;;;12.40;99.90;;;;;;5030343;28;20027;-78
2024/03/22 04:23:06;;;;;;;22.92;11.05;;;12.40;99.90;;;;;;5032860;28;20028;-78
2024/03/22 04:25:31;;;;;;;20.88;11.68;;;12.40;99.90;;;;;;5030726;28;20076;-78
2024/03/22 04:27:57;;;;;;;20.02;10.80;;;12.40;99.90;;;;;;5014882;28;20018;-78
2024/03/22 04:30:22;;;;;;;25.13;11.23;;;12.40;99.90;;;;;;5014484;28;20105;-78
2024/03/22 04:32:48;;;;;;;21.95;9.80;;;12.40;99.90;;;;;;5032521;28;20017;-78
2024/03/22 04:35:14;;;;;;;23.00;11.35;;;12.40;99.90;;;;;;5030013;28;20029;-78
2024/03/22 04:37:39;;;;;;;21.80;11.07;;;12.40;99.90;;;;;;5031679;28;20521;-78
2024/03/22 04:40:05;;;;;;;22.50;11.50;;;12.40;99.90;;;;;;5014718;28;20060;-78
2024/03/22 04:42:31;;;;;;;27.90;10.00;;;12.40;99.90;;;;;;5028207;28;20786;-79
2024/03/22 04:44:57;;;;;;;22.60;11.48;;;12.40;99.90;;;;;;5032531;28;20025;-78
2024/03/22 04:47:23;;;;;;;21.98;11.05;;;12.40;99.90;;;;;;5009298;28;20025;-78
2024/03/22 04:49:49;;;;;;;27.85;11.15;;;12.40;99.90;;;;;;5031220;28;20030;-79
2024/03/22 04:52:14;;;;;;;20.67;11.07;;;12.40;99.90;;;;;;5031256;28;20517;-78
2024/03/22 04:54:40;;;;;;;23.63;11.38;;;12.40;99.90;;;;;;5014417;28;20028;-77
2024/03/22 04:57:06;;;;;;;19.83;10.85;;;12.40;99.90;;;;;;5031909;28;20029;-78
2024/03/22 04:59:31;;;;;;;20.45;11.00;;;12.40;99.90;;;;;;5030693;28;20029;-79
2024/03/22 05:01:57;;;;;;;25.40;10.85;;;12.40;99.90;;;;;;5032400;28;20049;-79
2024/03/22 05:04:22;;;;;;;17.38;10.57;;;12.40;99.90;;;;;;5014011;28;20028;-78
2024/03/22 05:06:48;;;;;;;23.13;10.60;;;12.40;99.90;;;;;;5029341;28;20021;-79
2024/03/22 05:09:13;;;;;;;15.77;9.13;;;12.40;99.90;;;;;;5031738;28;20017;-79
2024/03/22 05:11:39;;;;;;;19.17;9.35;;;12.40;99.90;;;;;;5031821;28;20036;-78
2024/03/22 05:14:04;;;;;;;23.17;11.07;;;12.40;99.90;;;;;;5030625;28;20022;-78
2024/03/22 05:16:30;;;;;;;20.88;10.63;;;12.40;99.90;;;;;;5031485;28;20100;-78
2024/03/22 05:18:55;;;;;;;18.13;10.38;;;12.40;99.90;;;;;;5031900;28;20017;-78
2024/03/22 05:21:21;;;;;;;20.25;10.90;;;12.40;99.90;;;;;;5030603;28;20812;-78
2024/03/22 05:23:46;;;;;;;20.20;10.70;;;12.40;99.90;;;;;;5030698;28;20432;-79
2024/03/22 05:26:12;;;;;;;22.25;10.15;;;12.40;99.90;;;;;;5031787;28;20033;-79
2024/03/22 05:28:37;;;;;;;21.30;10.75;;;12.40;99.90;;;;;;5029774;28;20041;-78
2024/03/22 05:31:03;;;;;;;21.95;10.60;;;12.30;99.90;;;;;;5031118;28;20018;-78
2024/03/22 05:33:29;;;;;;;27.23;11.23;;;12.30;99.90;;;;;;5013278;28;20025;-77
2024/03/22 05:35:54;;;;;;;24.15;11.25;;;12.40;99.90;;;;;;5029568;28;20025;-78
2024/03/22 05:38:20;;;;;;;18.20;10.45;;;12.40;99.90;;;;;;5024474;28;20033;-78
2024/03/22 05:40:47;;;;;;;18.35;9.73;;;12.30;99.90;;;;;;5003455;28;20041;-79
2024/03/22 05:43:13;;;;;;;19.92;11.35;;;12.30;99.90;;;;;;5008698;28;20029;-78
2024/03/22 05:45:39;;;;;;;20.70;11.43;;;12.30;99.90;;;;;;5008576;28;20026;-80
2024/03/22 05:48:04;;;;;;;20.23;10.60;;;12.30;99.90;;;;;;5020881;28;20030;-80
2024/03/22 05:50:30;;;;;;;18.85;10.32;;;12.30;99.90;;;;;;5027432;28;20030;-79
2024/03/22 05:52:56;;;;;;;23.75;11.75;;;12.30;99.90;;;;;;5010195;28;20044;-79
2024/03/22 05:55:21;;;;;;;23.58;10.63;;;12.30;99.90;;;;;;5025488;28;20130;-78
2024/03/22 05:57:47;;;;;;;19.80;10.32;;;12.40;99.90;;;;;;5003468;28;20204;-79
2024/03/22 06:00:13;;;;;;;22.77;11.65;;;12.30;99.90;;;;;;5013558;28;20109;-78
2024/03/22 06:02:39;;;;;;;27.40;11.73;;;12.30;99.90;;;;;;4994063;28;20371;-79
2024/03/22 06:05:05;;;;;;;27.58;12.00;;;12.30;99.90;;;;;;4995762;28;20472;-78
2024/03/22 06:07:38;;;;;;;25.02;11.38;;;12.30;99.90;;;;;;5018112;28;20029;-78
2024/03/22 06:10:04;;;;;;;21.52;10.88;;;12.30;99.90;;;;;;5020415;28;20026;-78
2024/03/22 06:12:30;;;;;;;21.88;9.95;;;12.30;99.90;;;;;;5014432;28;20021;-78
2024/03/22 06:14:55;;;;;;;21.48;10.77;;;12.30;99.90;;;;;;5024591;28;20032;-79
2024/03/22 06:17:21;;;;;;;18.15;10.73;;;12.40;99.90;;;;;;5028185;28;20025;-78
2024/03/22 06:19:47;;;;;;;20.80;10.50;;;12.30;99.90;;;;;;5030112;28;20022;-79
2024/03/22 06:22:12;;;;;;;20.60;10.80;;;12.40;99.90;;;;;;5009325;28;20025;-78
2024/03/22 06:24:38;;;;;;;19.30;10.93;;;12.40;99.90;;;;;;5008546;28;20114;-79
2024/03/22 06:27:04;;;;;;;21.13;11.13;;;12.40;99.90;;;;;;5029746;28;20021;-81
2024/03/22 06:29:29;;;;;;;23.80;12.02;;;12.40;99.90;;;;;;5029814;28;20033;-83
2024/03/22 06:31:55;;;;;;;22.73;11.48;;;12.40;99.90;;;;;;5012043;28;20021;-80
2024/03/22 06:34:20;;;;;;;22.88;11.45;;;12.40;99.90;;;;;;5028470;28;20080;-81
2024/03/22 06:36:47;;;;;;;23.50;11.10;;;12.40;99.90;;;;;;5025982;28;20451;-80
2024/03/22 06:39:12;;;;;;;20.75;10.77;;;12.40;99.90;;;;;;5007068;28;20075;-80
2024/03/22 06:41:38;;;;;;;23.88;10.43;;;12.40;99.90;;;;;;5007587;28;20030;-78
2024/03/22 06:44:04;;;;;;;23.20;11.88;;;12.40;99.90;;;;;;5011981;28;20021;-78
2024/03/22 06:46:30;;;;;;;22.15;11.43;;;12.40;99.90;;;;;;5029397;28;20028;-78
2024/03/22 06:48:56;;;;;;;17.30;9.93;;;12.40;99.90;;;;;;5028423;28;20026;-78
2024/03/22 06:51:21;;;;;;;21.63;10.65;;;12.40;99.90;;;;;;5029166;28;20079;-78
2024/03/22 06:53:47;;;;;;;19.73;10.65;;;12.40;99.90;;;;;;5011191;28;20074;-78
2024/03/22 06:56:13;;;;;;;20.50;10.93;;;12.50;99.90;;;;;;5011274;28;20029;-78
2024/03/22 06:58:39;;;;;;;22.80;10.85;;;12.40;99.90;;;;;;4971812;28;1076043;-78
2024/03/22 07:01:05;;;;;;;18.15;10.43;;;12.50;99.90;;;;;;5008921;28;20026;-77
2024/03/22 07:03:30;;;;;;;20.35;10.98;;;12.40;99.90;;;;;;5011979;28;20029;-81
2024/03/22 07:05:57;;;;;;;25.23;11.18;;;12.40;99.90;;;;;;5026337;28;20033;-78
2024/03/22 07:08:23;;;;;;;21.20;10.80;;;12.40;99.90;;;;;;5011935;28;20030;-79
2024/03/22 07:10:49;;;;;;;23.35;12.20;;;12.40;99.90;;;;;;5007697;28;20018;-78
2024/03/22 07:13:14;;;;;;;21.05;11.75;;;12.40;99.90;;;;;;5009588;28;20026;-77
2024/03/22 07:15:40;;;;;;;20.98;11.30;;;12.40;99.90;;;;;;5029771;28;20017;-79
2024/03/22 07:18:06;;;;;;;25.27;11.20;;;12.40;99.90;;;;;;5029795;28;20383;-79
2024/03/22 07:20:31;;;;;;;23.67;11.50;;;12.50;99.90;;;;;;5028843;28;20087;-78
2024/03/22 07:22:57;;;;;;;23.25;10.88;;;12.50;99.90;;;;;;5029612;28;20053;-79
2024/03/22 07:25:22;;;;;;;20.08;11.25;;;12.50;99.90;;;;;;5011366;28;20033;-79
2024/03/22 07:27:49;;;;;;;19.70;11.05;;;12.50;99.90;;;;;;5011071;28;20109;-78
2024/03/22 07:30:14;;;;;;;19.98;10.52;;;12.50;99.90;;;;;;5025972;28;20403;-78
2024/03/22 07:32:40;;;;;;;25.00;11.40;;;12.60;99.90;;;;;;5010843;28;20093;-78
2024/03/22 07:35:07;;;;;;;23.00;11.77;;;12.50;99.90;;;;;;5024915;28;20451;-79
2024/03/22 07:37:34;;;;;;;22.65;11.40;;;12.60;99.90;;;;;;5011213;28;20490;-77
2024/03/22 07:39:59;;;;;;;25.70;11.18;;;12.60;99.90;;;;;;5027534;28;20026;-78
2024/03/22 07:42:25;;;;;;;22.02;11.30;;;12.60;99.90;;;;;;5028833;28;20075;-78
2024/03/22 07:44:50;;;;;;;23.45;11.60;;;12.60;99.90;;;;;;5029047;28;20061;-78
2024/03/22 07:47:16;;;;;;;20.83;10.75;;;12.70;99.90;;;;;;5026252;28;20041;-79
2024/03/22 07:49:42;;;;;;;22.98;12.05;;;12.70;99.90;;;;;;5028656;28;20025;-78
2024/03/22 07:52:07;;;;;;;23.70;12.30;;;12.70;99.90;;;;;;5011789;28;20543;-78
2024/03/22 07:54:33;;;;;;;20.30;11.40;;;12.70;99.90;;;;;;5029479;28;20025;-78
2024/03/22 07:56:58;;;;;;;20.15;11.07;;;12.70;99.90;;;;;;5011102;28;20025;-78
2024/03/22 07:59:24;;;;;;;21.25;11.23;;;12.70;99.90;;;;;;5011178;28;20132;-77
2024/03/22 08:01:50;;;;;;;21.90;11.32;;;12.80;99.90;;;;;;5029413;28;20025;-78
2024/03/22 08:04:16;;;;;;;19.42;11.50;;;12.70;99.90;;;;;;5011277;28;20565;-79
2024/03/22 08:06:41;;;;;;;23.58;11.40;;;12.80;99.90;;;;;;5011115;28;20479;-78
2024/03/22 08:09:07;;;;;;;24.65;11.85;;;12.80;99.90;;;;;;5009871;28;20025;-79
2024/03/22 08:11:33;;;;;;;24.17;12.27;;;12.90;99.90;;;;;;5011337;28;20434;-78
2024/03/22 08:14:03;;;;;;;26.95;11.07;;;13.00;99.90;;;;;;5007268;28;20080;-78
2024/03/22 08:16:29;;;;;;;22.95;13.23;;;13.00;99.90;;;;;;5029108;28;20030;-79
2024/03/22 08:18:54;;;;;;;24.05;12.40;;;13.10;99.90;;;;;;5027253;28;20033;-78
2024/03/22 08:21:20;;;;;;;22.02;11.88;;;13.20;99.90;;;;;;5029249;28;20026;-78
2024/03/22 08:23:46;;;;;;;25.40;11.80;;;13.30;99.90;;;;;;5026053;28;20025;-80
2024/03/22 08:26:11;;;;;;;20.83;12.07;;;13.40;99.90;;;;;;5029122;28;20029;-78
2024/03/22 08:28:38;;;;;;;22.35;11.75;;;13.60;99.90;;;;;;5029220;28;20490;-78
2024/03/22 08:31:04;;;;;;;22.95;10.75;;;13.80;99.90;;;;;;5029172;28;20025;-78
2024/03/22 08:33:30;;;;;;;19.75;10.90;;;13.90;99.90;;;;;;5027292;28;20045;-78
2024/03/22 08:35:56;;;;;;;14.02;4.85;;;14.10;99.90;;;;;;5028232;28;20017;-82
2024/03/22 08:38:21;;;;;;;14.25;4.57;;;14.50;99.90;;;;;;5029308;28;20021;-81
2024/03/22 08:40:48;;;;;;;10.15;3.95;;;15.00;99.90;;;;;;5028912;28;20120;-80
2024/03/22 08:43:13;;;;;;;11.98;5.03;;;15.30;99.90;;;;;;5029104;28;20022;-79
2024/03/22 08:45:39;;;;;;;11.10;5.30;;;15.50;99.90;;;;;;5014174;28;20117;-79
2024/03/22 08:48:05;;;;;;;11.43;5.00;;;15.60;99.90;;;;;;5014059;28;20033;-80
2024/03/22 08:50:30;;;;;;;9.75;4.68;;;15.70;99.90;;;;;;5032473;28;20026;-81
2024/03/22 08:52:56;;;;;;;9.52;5.10;;;15.70;99.90;;;;;;5007706;28;20026;-81
2024/03/22 08:55:22;;;;;;;9.55;4.93;;;15.70;99.90;;;;;;5032009;28;20041;-82
2024/03/22 08:57:48;;;;;;;21.40;9.70;;;15.70;99.90;;;;;;5004735;28;20079;-81
2024/03/22 09:00:14;;;;;;;12.27;6.22;;;14.50;99.90;;;;;;5003722;28;20033;-80
2024/03/22 09:02:39;;;;;;;11.70;7.20;;;14.90;99.90;;;;;;5017252;28;20033;-80
2024/03/22 09:05:06;;;;;;;17.88;6.97;;;15.40;99.90;;;;;;5031981;28;20032;-80
2024/03/22 09:07:31;;;;;;;11.23;6.20;;;15.60;99.90;;;;;;5032068;28;20052;-81
2024/03/22 09:09:57;;;;;;;11.77;5.72;;;15.70;99.90;;;;;;5014295;28;20022;-81
2024/03/22 09:12:23;;;;;;;12.32;4.95;;;15.80;99.90;;;;;;5011999;28;20075;-80
2024/03/22 09:14:48;;;;;;;11.48;5.43;;;15.80;99.90;;;;;;5012283;28;20736;-80
2024/03/22 09:17:14;;;;;;;11.48;6.28;;;15.80;99.90;;;;;;5010537;28;20077;-82
2024/03/22 09:19:39;;;;;;;8.30;4.80;;;15.90;99.90;;;;;;5011851;28;20099;-79
2024/03/22 09:22:06;;;;;;;18.00;6.57;;;15.90;99.90;;;;;;5013931;28;20017;-79
2024/03/22 09:24:31;;;;;;;12.55;6.30;;;15.90;99.90;;;;;;5014147;28;20028;-80
2024/03/22 09:26:58;;;;;;;9.27;4.57;;;15.90;99.90;;;;;;5031661;28;20100;-80
2024/03/22 09:29:24;;;;;;;12.82;5.88;;;15.90;99.90;;;;;;5011583;28;20025;-79
2024/03/22 09:31:50;;;;;;;10.60;4.45;;;16.00;99.90;;;;;;5005867;28;20112;-80
2024/03/22 09:34:16;;;;;;;13.32;4.72;;;16.00;99.90;;;;;;5010464;28;20058;-82
2024/03/22 09:36:42;;;;;;;10.70;5.65;;;16.00;99.90;;;;;;5011999;28;20052;-81
2024/03/22 09:39:08;;;;;;;8.80;5.15;;;16.00;99.90;;;;;;5030769;28;20117;-79
2024/03/22 09:41:41;;;;;;;9.82;4.70;;;16.00;99.90;;;;;;5013388;28;20140;-78
2024/03/22 09:44:07;;;;;;;10.52;4.88;;;16.00;99.90;;;;;;5030146;28;20048;-78
2024/03/22 09:46:34;;;;;;;10.38;4.75;;;15.90;99.90;;;;;;5031302;28;20267;-79
2024/03/22 09:49:01;;;;;;;12.23;4.90;;;16.00;99.90;;;;;;5031326;28;20022;-78
2024/03/22 09:51:28;;;;;;;8.23;5.10;;;16.00;99.90;;;;;;5013231;28;20156;-78
2024/03/22 09:53:55;;;;;;;8.00;4.65;;;15.90;99.90;;;;;;5031224;28;20022;-78
2024/03/22 09:56:21;;;;;;;8.00;4.78;;;15.90;99.90;;;;;;5008944;28;20381;-78
2024/03/22 09:58:47;;;;;;;10.82;4.70;;;15.90;99.90;;;;;;5007946;28;20107;-78
2024/03/22 10:01:13;;;;;;;8.85;4.40;;;15.90;99.90;;;;;;5013443;28;20079;-79
2024/03/22 10:03:39;;;;;;;13.98;4.43;;;15.90;99.90;;;;;;5033463;28;20036;-78
2024/03/22 10:06:06;;;;;;;8.35;4.50;;;15.90;99.90;;;;;;5013246;28;20017;-78
2024/03/22 10:08:32;;;;;;;11.05;4.45;;;15.80;99.90;;;;;;5027427;28;20479;-79
2024/03/22 10:10:57;;;;;;;7.63;4.18;;;15.80;99.90;;;;;;5009416;28;20112;-78
2024/03/22 10:13:23;;;;;;;9.88;4.75;;;15.70;99.90;;;;;;5012769;28;20530;-78
2024/03/22 10:15:48;;;;;;;10.93;4.38;;;15.70;99.90;;;;;;5013474;28;20017;-78
2024/03/22 10:18:15;;;;;;;11.38;4.15;;;15.70;99.90;;;;;;5012723;28;20018;-77
2024/03/22 10:20:41;;;;;;;8.70;4.43;;;15.70;99.90;;;;;;5030804;28;20530;-78
2024/03/22 10:23:07;;;;;;;5.70;3.65;;;15.80;99.90;;;;;;5012822;28;20021;-78
2024/03/22 10:25:34;;;;;;;6.80;4.03;;;15.80;99.90;;;;;;5012950;28;20482;-78
2024/03/22 10:27:59;;;;;;;7.25;4.00;;;15.80;99.90;;;;;;5026633;28;20056;-77
2024/03/22 10:30:25;;;;;;;9.10;4.55;;;15.80;99.90;;;;;;5012842;28;20049;-78
2024/03/22 10:32:51;;;;;;;8.43;4.85;;;15.90;99.90;;;;;;5011208;28;20025;-79
2024/03/22 10:35:18;;;;;;;7.35;3.83;;;16.10;99.90;;;;;;5011993;28;20022;-78
2024/03/22 10:37:43;;;;;;;7.43;3.47;;;16.10;99.90;;;;;;5011788;28;20031;-78
2024/03/22 10:40:11;;;;;;;9.75;4.97;;;16.30;99.90;;;;;;5012056;28;20092;-78
2024/03/22 10:42:37;;;;;;;7.90;4.78;;;16.20;99.90;;;;;;5029586;28;20013;-79
2024/03/22 10:45:04;;;;;;;5.43;3.42;;;16.20;99.90;;;;;;5030147;28;20026;-78
2024/03/22 10:47:31;;;;;;;7.45;3.83;;;16.20;99.90;;;;;;5012178;28;20021;-79
2024/03/22 10:50:10;;;;;;;7.07;3.60;;;16.30;99.90;;;;;;5012607;28;20471;-78
2024/03/22 10:52:53;;;;;;;9.82;3.50;;;16.40;99.90;;;;;;5012212;28;20017;-80
2024/03/22 10:55:30;;;;;;;9.02;4.10;;;16.60;98.70;;;;;;5027980;28;20037;-78
2024/03/22 10:57:59;;;;;;;10.45;5.45;;;16.50;96.80;;;;;;5026434;28;20021;-79
2024/03/22 11:00:29;;;;;;;5.90;3.15;;;16.40;99.10;;;;;;5007615;28;20152;-78
2024/03/22 11:02:55;;;;;;;;;;;16.40;99.90;;;;;;5011434;28;20418;-80
2024/03/22 11:05:20;;;;;;;9.30;5.05;;;16.40;98.90;;;;;;5012042;28;19915;-79
2024/03/22 11:07:46;;;;;;;7.65;4.43;;;16.30;97.80;;;;;;5029309;28;20029;-79
2024/03/22 11:10:12;;;;;;;9.25;4.90;;;16.40;97.60;;;;;;5012090;28;20021;-78
2024/03/22 11:12:39;;;;;;;14.45;3.95;;;16.40;98.00;;;;;;5008624;28;20026;-79
2024/03/22 11:15:05;;;;;;;11.40;5.90;;;16.40;99.90;;;;;;5012018;28;20033;-78
2024/03/22 11:17:31;;;;;;;5.47;3.30;;;16.40;98.00;;;;;;5011864;28;20074;-79
2024/03/22 11:19:57;;;;;;;10.13;5.40;;;16.30;99.90;;;;;;5012125;28;20032;-79
2024/03/22 11:22:23;;;;;;;6.50;4.30;;;16.40;97.00;;;;;;5029851;28;20029;-79
2024/03/22 11:24:48;;;;;;;7.80;3.95;;;16.30;97.10;;;;;;5029781;28;20489;-79
2024/03/22 11:27:14;;;;;;;5.57;3.70;;;16.20;99.90;;;;;;5009802;28;20067;-80
2024/03/22 11:29:41;;;;;;;8.80;3.42;;;16.10;99.90;;;;;;5026511;28;20403;-80
2024/03/22 11:32:11;;;;;;;9.20;4.55;;;16.10;99.90;;;;;;5029634;28;20045;-78
2024/03/22 11:34:41;;;;;;;10.02;4.90;;;16.20;97.50;;;;;;5009815;28;20032;-79
2024/03/22 11:37:10;;;;;;;7.68;3.42;;;16.30;97.60;;;;;;5008291;28;20030;-78
2024/03/22 11:39:36;;;;;;;7.55;3.05;;;16.10;99.90;;;;;;5011775;28;20025;-79
2024/03/22 11:42:04;;;;;;;6.18;3.95;;;16.00;99.90;;;;;;5011891;28;20028;-78
2024/03/22 11:44:31;;;;;;;6.75;3.53;;;15.90;99.90;;;;;;5026469;28;20119;-79
2024/03/22 11:46:57;;;;;;;6.25;3.30;;;16.00;99.90;;;;;;5029364;28;20096;-79
2024/03/22 11:49:22;;;;;;;7.75;3.38;;;16.00;99.90;;;;;;5011446;28;20176;-78
2024/03/22 11:51:48;;;;;;;9.18;4.18;;;16.10;99.90;;;;;;5029521;28;20499;-79
2024/03/22 11:54:13;;;;;;;8.38;3.80;;;16.20;99.90;;;;;;5026884;28;20064;-78
2024/03/22 11:56:40;;;;;;;5.32;2.85;;;16.20;99.90;;;;;;5029334;28;20111;-78
2024/03/22 11:59:06;;;;;;;6.82;4.07;;;16.20;99.90;;;;;;5028671;28;20032;-80
2024/03/22 12:01:33;;;;;;;9.80;4.35;;;16.10;97.30;;;;;;5029085;28;20053;-78
2024/03/22 12:03:59;;;;;;;7.10;3.72;;;16.10;96.60;;;;;;5028568;28;20484;-78
2024/03/22 12:06:24;;;;;;;4.38;3.17;;;16.10;99.60;;;;;;5011631;28;20032;-78
2024/03/22 12:08:50;;;;;;;3.88;2.25;;;16.10;97.70;;;;;;5028996;28;20021;-79
2024/03/22 12:11:16;;;;;;;6.00;3.58;;;16.00;99.90;;;;;;5029036;28;20025;-78
2024/03/22 12:13:41;;;;;;;7.15;3.50;;;15.90;99.90;;;;;;5011560;28;20017;-79
2024/03/22 12:16:07;;;;;;;6.95;2.75;;;16.00;99.90;;;;;;5029065;28;20018;-79
2024/03/22 12:18:33;;;;;;;6.38;3.47;;;15.90;99.90;;;;;;5007575;28;20488;-79
2024/03/22 12:20:59;;;;;;;4.50;2.75;;;15.90;99.90;;;;;;5012898;28;20025;-78
2024/03/22 12:23:25;;;;;;;7.97;3.03;;;15.90;99.90;;;;;;5013048;28;20033;-78
2024/03/22 12:25:51;;;;;;;4.38;2.70;;;16.00;99.70;;;;;;5014945;28;20506;-79